createdAt,value
2023-10-06T00:01:41.688Z,48.50
2023-10-06T00:04:08.640Z,48.50
2023-10-06T00:06:38.879Z,48.50
2023-10-06T00:09:08.083Z,48.50
2023-10-06T00:11:35.272Z,48.60
2023-10-06T00:14:02.316Z,48.40
2023-10-06T00:16:34.751Z,48.30
2023-10-06T00:19:14.709Z,48.50
2023-10-06T00:21:48.431Z,48.70
2023-10-06T00:24:15.497Z,48.80
2023-10-06T00:26:44.125Z,48.90
2023-10-06T00:29:19.116Z,48.90
2023-10-06T00:31:49.071Z,48.80
2023-10-06T00:34:28.354Z,49.00
2023-10-06T00:36:57.250Z,49.10
2023-10-06T00:39:31.437Z,49.20
2023-10-06T00:42:05.688Z,49.20
2023-10-06T00:44:32.709Z,49.20
2023-10-06T00:47:00.629Z,49.20
2023-10-06T00:49:30.118Z,49.20
2023-10-06T00:51:57.104Z,49.30
2023-10-06T00:54:26.414Z,49.30
2023-10-06T00:56:59.117Z,49.30
2023-10-06T00:59:26.289Z,49.20
2023-10-06T01:01:54.002Z,49.20
2023-10-06T01:04:25.990Z,49.30
2023-10-06T01:06:55.774Z,49.40
2023-10-06T01:09:31.562Z,49.50
2023-10-06T01:11:58.576Z,49.50
2023-10-06T01:14:28.694Z,49.50
2023-10-06T01:17:04.344Z,49.50
2023-10-06T01:19:34.773Z,49.60
2023-10-06T01:22:28.122Z,49.60
2023-10-06T01:24:55.481Z,49.60
2023-10-06T01:27:27.183Z,49.60
2023-10-06T01:30:14.498Z,49.70
2023-10-06T01:32:47.747Z,49.80
2023-10-06T01:35:16.584Z,49.80
2023-10-06T01:37:44.248Z,49.80
2023-10-06T01:40:19.744Z,49.80
2023-10-06T01:42:46.880Z,49.90
2023-10-06T01:45:20.404Z,49.80
2023-10-06T01:47:47.677Z,49.90
2023-10-06T01:50:14.691Z,50.00
2023-10-06T01:52:41.782Z,50.10
2023-10-06T01:55:10.482Z,50.10
2023-10-06T01:57:37.506Z,50.00
2023-10-06T02:00:07.896Z,50.10
2023-10-06T02:02:38.788Z,50.00
2023-10-06T02:05:07.931Z,50.10
2023-10-06T02:07:37.023Z,50.10
2023-10-06T02:10:04.918Z,50.10
2023-10-06T02:12:31.810Z,50.10
2023-10-06T02:14:59.433Z,50.10
2023-10-06T02:17:26.435Z,50.10
2023-10-06T02:19:53.489Z,50.20
2023-10-06T02:22:20.580Z,50.10
2023-10-06T02:24:47.510Z,50.10
2023-10-06T02:27:14.455Z,50.20
2023-10-06T02:29:44.745Z,50.30
2023-10-06T02:32:14.282Z,50.20
2023-10-06T02:34:41.684Z,50.30
2023-10-06T02:37:09.553Z,50.30
2023-10-06T02:39:39.380Z,50.40
2023-10-06T02:42:11.126Z,50.40
2023-10-06T02:44:42.906Z,50.40
2023-10-06T02:47:15.216Z,50.50
2023-10-06T02:49:49.054Z,50.40
2023-10-06T02:52:23.010Z,50.50
2023-10-06T02:55:13.531Z,50.50
2023-10-06T02:57:42.865Z,50.50
2023-10-06T03:00:22.219Z,50.50
2023-10-06T03:02:49.390Z,50.60
2023-10-06T03:05:16.448Z,50.60
2023-10-06T03:07:47.199Z,50.70
2023-10-06T03:10:17.420Z,50.70
2023-10-06T03:12:44.874Z,50.70
2023-10-06T03:15:30.508Z,50.70
2023-10-06T03:17:59.610Z,50.80
2023-10-06T03:20:31.105Z,50.70
2023-10-06T03:22:58.184Z,50.70
2023-10-06T03:25:29.115Z,50.80
2023-10-06T03:27:58.876Z,50.80
2023-10-06T03:30:29.984Z,50.80
2023-10-06T03:32:59.167Z,50.80
2023-10-06T03:35:37.354Z,50.80
2023-10-06T03:38:28.418Z,50.90
2023-10-06T03:40:58.616Z,51.00
2023-10-06T03:43:35.461Z,51.00
2023-10-06T03:46:02.559Z,51.00
2023-10-06T03:48:32.788Z,51.10
2023-10-06T03:51:01.131Z,51.10
2023-10-06T03:53:30.947Z,51.10
2023-10-06T03:55:58.737Z,51.10
2023-10-06T03:58:33.280Z,51.10
2023-10-06T04:01:08.581Z,51.10
2023-10-06T04:03:35.732Z,51.10
2023-10-06T04:06:05.569Z,51.10
2023-10-06T04:08:32.539Z,51.10
2023-10-06T04:10:59.559Z,51.00
2023-10-06T04:13:26.690Z,51.10
2023-10-06T04:15:54.063Z,51.20
2023-10-06T04:18:23.369Z,51.10
2023-10-06T04:20:50.970Z,51.10
2023-10-06T04:23:18.464Z,51.20
2023-10-06T04:25:48.731Z,51.10
2023-10-06T04:28:15.955Z,51.20
2023-10-06T04:30:43.538Z,51.20
2023-10-06T04:33:15.237Z,51.30
2023-10-06T04:35:44.359Z,51.30
2023-10-06T04:38:13.764Z,51.30
2023-10-06T04:40:43.768Z,51.30
2023-10-06T04:43:10.986Z,51.30
2023-10-06T04:45:40.131Z,51.30
2023-10-06T04:48:09.341Z,51.30
2023-10-06T04:50:36.479Z,51.30
2023-10-06T04:53:06.870Z,51.40
2023-10-06T04:55:38.820Z,51.40
2023-10-06T04:58:06.575Z,51.40
2023-10-06T05:00:34.472Z,51.50
2023-10-06T05:03:04.637Z,51.50
2023-10-06T05:05:35.356Z,51.50
2023-10-06T05:08:03.566Z,51.50
2023-10-06T05:10:31.617Z,51.50
2023-10-06T05:13:00.037Z,51.50
2023-10-06T05:15:33.146Z,51.50
2023-10-06T05:18:01.336Z,51.60
2023-10-06T05:20:31.738Z,51.60
2023-10-06T05:22:59.892Z,51.60
2023-10-06T05:25:27.464Z,51.60
2023-10-06T05:27:54.588Z,51.60
2023-10-06T05:30:22.409Z,51.60
2023-10-06T05:32:49.640Z,51.60
2023-10-06T05:35:16.803Z,51.70
2023-10-06T05:37:44.541Z,51.70
2023-10-06T05:40:13.368Z,51.70
2023-10-06T05:42:41.609Z,51.70
2023-10-06T05:45:16.773Z,51.60
2023-10-06T05:47:46.337Z,51.70
2023-10-06T05:50:19.694Z,51.70
2023-10-06T05:52:53.065Z,51.70
2023-10-06T05:55:20.762Z,51.70
2023-10-06T05:57:57.001Z,51.70
2023-10-06T06:00:28.288Z,51.70
2023-10-06T06:02:55.790Z,51.70
2023-10-06T06:05:27.372Z,51.80
2023-10-06T06:07:54.767Z,51.70
2023-10-06T06:10:22.475Z,51.80
2023-10-06T06:12:49.408Z,52.00
2023-10-06T06:15:17.898Z,51.90
2023-10-06T06:17:44.883Z,52.10
2023-10-06T06:20:18.558Z,52.20
2023-10-06T06:22:54.828Z,52.20
2023-10-06T06:25:23.040Z,52.00
2023-10-06T06:27:50.573Z,51.80
2023-10-06T06:30:19.878Z,51.70
2023-10-06T06:32:49.652Z,51.60
2023-10-06T06:35:17.507Z,51.40
2023-10-06T06:37:44.509Z,51.40
2023-10-06T06:40:14.272Z,51.30
2023-10-06T06:42:44.461Z,51.10
2023-10-06T06:45:14.731Z,51.00
2023-10-06T06:47:44.945Z,50.90
2023-10-06T06:50:14.554Z,50.80
2023-10-06T06:52:41.758Z,50.60
2023-10-06T06:55:14.692Z,50.70
2023-10-06T06:57:44.328Z,50.60
2023-10-06T07:00:17.622Z,50.60
2023-10-06T07:02:45.343Z,50.50
2023-10-06T07:05:16.357Z,50.50
2023-10-06T07:07:48.151Z,50.60
2023-10-06T07:10:16.999Z,50.60
2023-10-06T07:12:44.280Z,50.60
2023-10-06T07:15:21.411Z,50.60
2023-10-06T07:17:49.547Z,50.40
2023-10-06T07:20:18.114Z,50.50
2023-10-06T07:22:46.575Z,50.50
2023-10-06T07:25:16.861Z,50.60
2023-10-06T07:27:44.978Z,50.80
2023-10-06T07:30:12.634Z,50.70
2023-10-06T07:32:42.258Z,50.80
2023-10-06T07:35:10.210Z,50.80
2023-10-06T07:37:37.528Z,50.90
2023-10-06T07:40:05.399Z,51.00
2023-10-06T07:42:32.916Z,51.00
2023-10-06T07:45:06.179Z,51.00
2023-10-06T07:47:35.375Z,50.90
2023-10-06T07:50:03.177Z,51.00
2023-10-06T07:52:30.415Z,51.00
2023-10-06T07:54:58.098Z,50.90
2023-10-06T07:57:25.044Z,50.80
2023-10-06T07:59:52.481Z,50.70
2023-10-06T08:02:20.141Z,50.70
2023-10-06T08:04:47.273Z,50.80
2023-10-06T08:07:14.367Z,50.60
2023-10-06T08:09:41.345Z,50.40
2023-10-06T08:12:09.528Z,50.40
2023-10-06T08:14:38.319Z,50.30
2023-10-06T08:17:06.564Z,50.50
2023-10-06T08:19:33.546Z,50.50
2023-10-06T08:22:01.344Z,50.30
2023-10-06T08:24:30.124Z,50.30
2023-10-06T08:26:58.300Z,50.20
2023-10-06T08:29:25.298Z,50.00
2023-10-06T08:31:54.294Z,49.80
2023-10-06T08:34:22.868Z,49.10
2023-10-06T08:36:49.776Z,49.50
2023-10-06T08:39:18.110Z,49.50
2023-10-06T08:41:45.953Z,49.70
2023-10-06T08:44:13.930Z,49.70
2023-10-06T08:46:45.606Z,49.90
2023-10-06T08:49:13.020Z,49.80
2023-10-06T08:51:40.100Z,49.80
2023-10-06T08:54:08.039Z,49.60
2023-10-06T08:56:35.277Z,49.60
2023-10-06T08:59:02.232Z,49.50
2023-10-06T09:01:29.272Z,49.30
2023-10-06T09:04:01.948Z,49.00
2023-10-06T09:06:29.046Z,49.00
2023-10-06T09:08:56.727Z,49.20
2023-10-06T09:11:39.570Z,49.00
2023-10-06T09:14:09.284Z,48.80
2023-10-06T09:16:49.881Z,48.50
2023-10-06T09:19:16.945Z,48.60
2023-10-06T09:22:03.537Z,48.70
2023-10-06T09:24:31.900Z,48.90
2023-10-06T09:26:59.498Z,48.70
2023-10-06T09:29:37.522Z,48.30
2023-10-06T09:32:20.846Z,47.80
2023-10-06T09:34:47.974Z,48.50
2023-10-06T09:37:19.153Z,48.70
2023-10-06T09:39:46.485Z,48.70
2023-10-06T09:42:14.280Z,48.50
2023-10-06T09:44:41.679Z,48.20
2023-10-06T09:47:11.832Z,48.60
2023-10-06T09:49:40.159Z,48.90
2023-10-06T09:52:07.137Z,49.10
2023-10-06T09:54:34.111Z,48.80
2023-10-06T09:57:01.316Z,48.80
2023-10-06T09:59:28.334Z,48.80
2023-10-06T10:01:55.567Z,48.90
2023-10-06T10:04:25.317Z,48.90
2023-10-06T10:06:52.700Z,48.80
2023-10-06T10:09:22.222Z,48.60
2023-10-06T10:11:58.553Z,48.60
2023-10-06T10:14:31.703Z,48.60
2023-10-06T10:16:58.934Z,48.60
2023-10-06T10:19:27.586Z,48.50
2023-10-06T10:21:54.841Z,48.60
2023-10-06T10:26:51.709Z,48.30
2023-10-06T10:29:18.803Z,47.90
2023-10-06T10:32:00.170Z,48.10
2023-10-06T10:34:35.167Z,48.10
2023-10-06T10:37:07.313Z,48.10
2023-10-06T10:40:01.005Z,47.90
2023-10-06T10:42:40.478Z,47.90
2023-10-06T10:45:26.128Z,47.70
2023-10-06T10:47:53.870Z,47.40
2023-10-06T10:50:21.278Z,47.40
2023-10-06T10:52:48.301Z,47.70
2023-10-06T10:55:17.670Z,47.80
2023-10-06T10:57:45.866Z,47.60
2023-10-06T11:00:14.951Z,47.80
2023-10-06T11:02:42.572Z,47.90
2023-10-06T11:05:11.084Z,47.90
2023-10-06T11:07:38.149Z,47.80
2023-10-06T11:10:05.321Z,47.20
2023-10-06T11:12:32.767Z,47.30
2023-10-06T11:15:21.564Z,47.70
2023-10-06T11:17:48.603Z,47.60
2023-10-06T11:20:23.729Z,47.60
2023-10-06T11:23:00.855Z,47.60
2023-10-06T11:25:28.964Z,47.30
2023-10-06T11:28:03.655Z,47.40
2023-10-06T11:30:36.872Z,47.60
2023-10-06T11:33:05.127Z,47.60
2023-10-06T11:35:32.606Z,47.60
2023-10-06T11:38:00.592Z,47.50
2023-10-06T11:40:27.571Z,47.40
2023-10-06T11:42:55.091Z,47.50
2023-10-06T11:45:26.032Z,47.50
2023-10-06T11:47:53.306Z,47.40
2023-10-06T11:50:25.453Z,47.50
2023-10-06T11:52:52.661Z,47.40
2023-10-06T11:55:23.131Z,47.50
2023-10-06T11:57:54.768Z,47.50
2023-10-06T12:00:38.251Z,47.40
2023-10-06T12:03:05.457Z,47.30
2023-10-06T12:05:32.754Z,47.30
2023-10-06T12:08:05.904Z,47.30
2023-10-06T12:10:33.940Z,47.20
2023-10-06T12:13:01.129Z,47.20
2023-10-06T12:15:30.896Z,47.20
2023-10-06T12:17:58.342Z,47.20
2023-10-06T12:20:25.894Z,47.20
2023-10-06T12:22:53.579Z,47.20
2023-10-06T12:25:24.283Z,47.10
2023-10-06T12:27:51.406Z,46.90
2023-10-06T12:30:18.716Z,46.80
2023-10-06T12:32:48.727Z,46.90
2023-10-06T12:35:19.987Z,46.90
2023-10-06T12:37:47.279Z,46.90
2023-10-06T12:40:15.602Z,46.80
2023-10-06T12:42:43.924Z,46.70
2023-10-06T12:45:14.341Z,46.90
2023-10-06T12:47:41.691Z,46.90
2023-10-06T12:50:09.798Z,47.00
2023-10-06T12:52:38.277Z,47.10
2023-10-06T12:55:14.512Z,47.20
2023-10-06T12:57:41.972Z,46.60
2023-10-06T13:00:09.247Z,46.90
2023-10-06T13:02:36.771Z,46.80
2023-10-06T13:05:24.785Z,46.90
2023-10-06T13:07:52.744Z,46.90
2023-10-06T13:10:23.554Z,46.90
2023-10-06T13:12:50.884Z,46.80
2023-10-06T13:15:18.860Z,46.70
2023-10-06T13:17:50.541Z,46.60
2023-10-06T13:20:17.670Z,46.70
2023-10-06T13:22:45.247Z,46.70
2023-10-06T13:25:12.482Z,46.70
2023-10-06T13:27:42.859Z,46.70
2023-10-06T13:30:16.196Z,46.70
2023-10-06T13:32:43.924Z,46.70
2023-10-06T13:35:17.524Z,46.80
2023-10-06T13:37:45.296Z,46.70
2023-10-06T13:40:12.973Z,46.70
2023-10-06T13:42:47.694Z,46.70
2023-10-06T13:45:23.460Z,46.80
2023-10-06T13:47:53.885Z,46.90
2023-10-06T13:50:21.797Z,46.90
2023-10-06T13:52:50.697Z,46.90
2023-10-06T13:55:18.103Z,47.00
2023-10-06T13:57:45.442Z,47.10
2023-10-06T14:00:15.971Z,47.00
2023-10-06T14:02:43.454Z,47.00
2023-10-06T14:05:13.072Z,47.10
2023-10-06T14:07:41.368Z,47.10
2023-10-06T14:10:14.117Z,47.30
2023-10-06T14:12:44.335Z,47.30
2023-10-06T14:15:31.554Z,47.40
2023-10-06T14:18:00.327Z,47.30
2023-10-06T14:20:31.164Z,47.20
2023-10-06T14:22:58.692Z,47.40
2023-10-06T14:25:30.964Z,47.50
2023-10-06T14:27:58.959Z,47.50
2023-10-06T14:30:26.869Z,47.50
2023-10-06T14:33:12.359Z,47.50
2023-10-06T14:36:11.788Z,47.50
2023-10-06T14:38:44.847Z,47.50
2023-10-06T14:41:30.897Z,47.40
2023-10-06T14:44:20.267Z,47.40
2023-10-06T14:46:51.639Z,47.50
2023-10-06T14:49:29.245Z,47.50
2023-10-06T14:51:57.603Z,47.60
2023-10-06T14:54:27.250Z,47.70
2023-10-06T14:56:55.928Z,47.70
2023-10-06T14:59:23.719Z,47.60
2023-10-06T15:01:52.762Z,47.60
2023-10-06T15:04:20.092Z,47.60
2023-10-06T15:06:47.275Z,47.70
2023-10-06T15:09:20.160Z,47.80
2023-10-06T15:11:51.548Z,47.80
2023-10-06T15:14:26.466Z,47.90
2023-10-06T15:16:54.667Z,47.90
2023-10-06T15:19:26.165Z,48.00
2023-10-06T15:21:53.950Z,48.00
2023-10-06T15:24:21.131Z,48.00
2023-10-06T15:26:49.375Z,48.00
2023-10-06T15:29:20.999Z,48.00
2023-10-06T15:31:49.649Z,48.10
2023-10-06T15:34:17.120Z,48.20
2023-10-06T15:36:44.397Z,48.20
2023-10-06T15:39:18.829Z,48.20
2023-10-06T15:41:46.742Z,48.10
2023-10-06T15:44:14.204Z,48.10
2023-10-06T15:46:42.248Z,48.20
2023-10-06T15:49:14.888Z,48.10
2023-10-06T15:51:44.497Z,48.20
2023-10-06T15:54:11.643Z,48.30
2023-10-06T15:56:41.849Z,48.30
2023-10-06T15:59:18.897Z,48.40
2023-10-06T16:01:48.473Z,48.40
2023-10-06T16:07:03.304Z,48.50
2023-10-06T16:09:30.296Z,48.60
2023-10-06T16:12:05.410Z,48.60
2023-10-06T16:14:32.523Z,48.60
2023-10-06T16:16:59.642Z,48.70
2023-10-06T16:19:26.878Z,48.70
2023-10-06T16:21:56.022Z,48.80
2023-10-06T16:24:23.133Z,48.80
2023-10-06T16:26:50.273Z,48.80
2023-10-06T16:29:17.616Z,48.80
2023-10-06T16:31:44.879Z,48.90
2023-10-06T16:34:12.009Z,48.90
2023-10-06T16:36:40.345Z,48.90
2023-10-06T16:39:18.075Z,48.90
2023-10-06T16:41:46.935Z,49.00
2023-10-06T16:44:14.522Z,49.00
2023-10-06T16:46:41.980Z,49.00
2023-10-06T16:49:09.450Z,49.10
2023-10-06T16:51:36.768Z,49.00
2023-10-06T16:54:04.103Z,49.10
2023-10-06T16:56:31.223Z,49.20
2023-10-06T16:58:58.325Z,49.30
2023-10-06T17:01:25.381Z,49.30
2023-10-06T17:03:53.607Z,49.40
2023-10-06T17:06:20.777Z,49.30
2023-10-06T17:08:47.746Z,49.40
2023-10-06T17:11:17.944Z,49.50
2023-10-06T17:13:49.573Z,49.50
2023-10-06T17:16:16.622Z,49.60
2023-10-06T17:18:43.773Z,49.70
2023-10-06T17:21:14.180Z,49.90
2023-10-06T17:23:41.482Z,49.90
2023-10-06T17:26:10.128Z,49.80
2023-10-06T17:28:37.458Z,49.90
2023-10-06T17:31:04.659Z,50.00
2023-10-06T17:33:31.857Z,50.10
2023-10-06T17:35:59.074Z,50.10
2023-10-06T17:38:26.224Z,50.10
2023-10-06T17:40:57.184Z,50.30
2023-10-06T17:43:24.728Z,50.20
2023-10-06T17:45:52.644Z,50.40
2023-10-06T17:48:20.040Z,50.30
2023-10-06T17:50:50.280Z,50.40
2023-10-06T17:53:17.275Z,50.40
2023-10-06T17:55:57.518Z,50.50
2023-10-06T17:58:24.871Z,50.50
2023-10-06T18:00:52.082Z,50.50
2023-10-06T18:03:19.447Z,50.60
2023-10-06T18:05:49.617Z,50.60
2023-10-06T18:08:19.725Z,50.60
2023-10-06T18:10:48.719Z,50.60
2023-10-06T18:13:16.056Z,50.60
2023-10-06T18:15:43.228Z,50.60
2023-10-06T18:18:11.905Z,50.60
2023-10-06T18:20:43.862Z,50.60
2023-10-06T18:23:11.668Z,50.60
2023-10-06T18:25:38.981Z,50.60
2023-10-06T18:28:06.410Z,50.60
2023-10-06T18:30:33.824Z,50.60
2023-10-06T18:33:01.331Z,50.60
2023-10-06T18:35:29.898Z,50.60
2023-10-06T18:37:56.978Z,50.60
2023-10-06T18:40:24.289Z,50.60
2023-10-06T18:42:51.352Z,50.70
2023-10-06T18:45:18.618Z,50.70
2023-10-06T18:47:45.720Z,50.70
2023-10-06T18:50:22.695Z,50.70
2023-10-06T18:52:50.205Z,50.70
2023-10-06T18:55:19.124Z,50.70
2023-10-06T18:57:46.516Z,50.70
2023-10-06T19:00:13.869Z,50.70
2023-10-06T19:02:41.509Z,50.80
2023-10-06T19:05:17.789Z,50.80
2023-10-06T19:07:44.853Z,50.80
2023-10-06T19:10:15.146Z,50.80
2023-10-06T19:12:42.891Z,50.80
2023-10-06T19:15:10.035Z,50.80
2023-10-06T19:17:40.111Z,50.80
2023-10-06T19:20:10.158Z,50.90
2023-10-06T19:22:39.078Z,50.90
2023-10-06T19:25:10.237Z,50.90
2023-10-06T19:27:37.346Z,50.90
2023-10-06T19:30:06.164Z,50.80
2023-10-06T19:32:34.953Z,50.90
2023-10-06T19:35:08.218Z,50.90
2023-10-06T19:37:35.618Z,50.90
2023-10-06T19:40:09.717Z,51.00
2023-10-06T19:42:37.364Z,51.10
2023-10-06T19:45:06.205Z,51.00
2023-10-06T19:47:33.475Z,51.00
2023-10-06T19:50:02.988Z,51.10
2023-10-06T19:52:30.052Z,51.20
2023-10-06T19:54:57.146Z,51.20
2023-10-06T19:57:24.105Z,51.20
2023-10-06T19:59:51.339Z,51.20
2023-10-06T20:02:18.338Z,51.20
2023-10-06T20:04:46.558Z,51.20
2023-10-06T20:07:13.906Z,51.20
2023-10-06T20:09:41.366Z,51.20
2023-10-06T20:12:08.587Z,51.30
2023-10-06T20:14:36.691Z,51.30
2023-10-06T20:17:05.334Z,51.30
2023-10-06T20:19:33.563Z,51.30
2023-10-06T20:22:00.624Z,51.30
2023-10-06T20:24:27.714Z,51.30
2023-10-06T20:26:54.868Z,51.40
2023-10-06T20:29:21.942Z,51.40
2023-10-06T20:31:49.113Z,51.40
2023-10-06T20:34:17.248Z,51.40
2023-10-06T20:36:55.983Z,51.40
2023-10-06T20:39:23.539Z,51.40
2023-10-06T20:41:53.687Z,51.40
2023-10-06T20:44:21.365Z,51.40
2023-10-06T20:46:48.579Z,51.50
2023-10-06T20:49:15.655Z,51.50
2023-10-06T20:51:42.906Z,51.50
2023-10-06T20:54:10.115Z,51.40
2023-10-06T20:56:39.022Z,51.30
2023-10-06T20:59:09.760Z,51.40
2023-10-06T21:01:37.359Z,51.50
2023-10-06T21:04:07.437Z,51.50
2023-10-06T21:06:35.992Z,51.50
2023-10-06T21:09:05.876Z,51.50
2023-10-06T21:11:35.178Z,51.50
2023-10-06T21:14:02.430Z,51.50
2023-10-06T21:16:29.676Z,51.50
2023-10-06T21:18:58.068Z,51.60
2023-10-06T21:21:25.151Z,51.60
2023-10-06T21:23:52.225Z,51.60
2023-10-06T21:26:19.244Z,51.60
2023-10-06T21:28:46.296Z,51.60
2023-10-06T21:31:16.424Z,51.60
2023-10-06T21:33:43.532Z,51.60
2023-10-06T21:36:10.620Z,51.50
2023-10-06T21:38:40.215Z,51.60
2023-10-06T21:41:07.406Z,51.60
2023-10-06T21:43:34.528Z,51.60
2023-10-06T21:46:04.816Z,51.60
2023-10-06T21:48:34.158Z,51.50
2023-10-06T21:51:01.379Z,51.40
2023-10-06T21:53:28.383Z,51.50
2023-10-06T21:55:55.389Z,51.50
2023-10-06T21:58:22.591Z,51.50
2023-10-06T22:00:56.800Z,51.40
2023-10-06T22:03:24.448Z,50.90
2023-10-06T22:05:51.582Z,51.00
2023-10-06T22:08:18.663Z,51.20
2023-10-06T22:10:45.826Z,51.30
2023-10-06T22:13:13.473Z,51.40
2023-10-06T22:15:40.851Z,51.40
2023-10-06T22:18:08.205Z,51.40
2023-10-06T22:20:36.022Z,51.40
2023-10-06T22:23:03.084Z,51.40
2023-10-06T22:25:30.217Z,51.30
2023-10-06T22:27:57.367Z,51.30
2023-10-06T22:30:24.617Z,50.80
2023-10-06T22:32:51.967Z,50.40
2023-10-06T22:35:19.048Z,50.60
2023-10-06T22:37:47.099Z,51.00
2023-10-06T22:40:18.345Z,50.80
2023-10-06T22:42:48.647Z,51.10
2023-10-06T22:45:17.084Z,51.00
2023-10-06T22:47:44.480Z,51.00
2023-10-06T22:50:13.013Z,51.10
2023-10-06T22:52:41.659Z,51.20
2023-10-06T22:55:10.058Z,51.10
2023-10-06T22:57:37.109Z,51.20
2023-10-06T23:00:09.931Z,51.10
2023-10-06T23:02:38.337Z,50.90
2023-10-06T23:05:06.980Z,51.00
2023-10-06T23:07:34.241Z,50.80
2023-10-06T23:10:02.098Z,51.10
2023-10-06T23:12:29.320Z,51.00
2023-10-06T23:14:57.246Z,51.00
2023-10-06T23:17:24.713Z,50.90
2023-10-06T23:19:59.943Z,51.10
2023-10-06T23:22:27.101Z,51.10
2023-10-06T23:24:54.864Z,51.20
2023-10-06T23:27:21.932Z,51.20
2023-10-06T23:29:49.638Z,51.30
2023-10-06T23:32:16.751Z,51.30
2023-10-06T23:34:43.813Z,51.10
2023-10-06T23:37:13.466Z,51.20
2023-10-06T23:39:41.099Z,51.10
2023-10-06T23:42:10.417Z,50.80
2023-10-06T23:44:39.350Z,50.90
2023-10-06T23:47:11.320Z,51.00
2023-10-06T23:49:41.114Z,51.20
2023-10-06T23:52:08.710Z,51.20
2023-10-06T23:54:35.681Z,51.10
2023-10-06T23:57:02.812Z,51.10
2023-10-06T23:59:29.748Z,51.20
